Time;durP1;ratioP1;P1;durP2;ratioP2;P2;SDS_P1;SDS_P2;PMS_P1;PMS_P2;Temp;Humidity;BMP_temperature;BMP_pressure;BME280_temperature;BME280_humidity;BME280_pressure;Samples;Min_cycle;Max_cycle;Signal;HPM_P1;HPM_P2
2023/03/16 00:01:16;;;;;;;7.75;2.35;;;14.30;82.20;;;;;;5093797;28;20048;-61
2023/03/16 00:03:42;;;;;;;7.68;2.50;;;14.40;82.30;;;;;;5093501;28;20043;-62
2023/03/16 00:06:08;;;;;;;7.07;2.92;;;;;;;;;;5080249;28;20036;-63
2023/03/16 00:08:38;;;;;;;7.82;2.28;;;14.40;82.30;;;;;;5100158;28;20120;-65
2023/03/16 00:11:04;;;;;;;4.80;2.05;;;14.50;80.00;;;;;;5113453;28;20054;-68
2023/03/16 00:13:31;;;;;;;5.70;2.17;;;;;;;;;;5113261;28;20492;-66
2023/03/16 00:16:03;;;;;;;8.48;2.45;;;14.70;77.80;;;;;;5112879;28;20044;-67
2023/03/16 00:18:29;;;;;;;5.53;2.15;;;;;;;;;;5113281;28;20043;-67
2023/03/16 00:20:57;;;;;;;8.52;2.80;;;14.40;82.10;;;;;;5113336;28;20036;-66
2023/03/16 00:23:26;;;;;;;7.00;2.80;;;14.30;82.00;;;;;;5097492;28;20101;-65
2023/03/16 00:25:59;;;;;;;6.22;2.38;;;14.40;78.90;;;;;;5093014;28;20087;-63
2023/03/16 00:28:25;;;;;;;5.45;2.30;;;14.60;80.80;;;;;;5093125;28;20044;-64
2023/03/16 00:30:51;;;;;;;5.93;2.08;;;14.30;81.90;;;;;;5097874;28;20482;-67
2023/03/16 00:33:17;;;;;;;6.18;2.55;;;14.50;82.10;;;;;;5113535;28;20054;-66
2023/03/16 00:35:49;;;;;;;7.00;2.25;;;14.40;77.60;;;;;;5113464;28;20362;-63
2023/03/16 00:38:18;;;;;;;6.53;2.47;;;14.30;78.60;;;;;;5113499;28;20396;-64
2023/03/16 00:40:44;;;;;;;6.90;2.28;;;14.50;82.10;;;;;;5094508;28;20048;-63
2023/03/16 00:43:10;;;;;;;5.93;2.08;;;;;;;;;;5112657;28;20077;-64
2023/03/16 00:45:36;;;;;;;6.10;2.00;;;14.60;82.10;;;;;;5113364;28;20039;-65
2023/03/16 00:48:02;;;;;;;5.57;2.08;;;;;;;;;;5112919;28;20096;-63
2023/03/16 00:50:28;;;;;;;6.18;2.30;;;14.40;82.00;;;;;;5113330;28;20043;-65
2023/03/16 00:52:54;;;;;;;6.28;2.45;;;14.10;81.90;;;;;;5113043;28;20048;-65
2023/03/16 00:55:20;;;;;;;4.78;1.90;;;;;;;;;;5113324;28;20051;-69
2023/03/16 00:57:46;;;;;;;5.28;2.25;;;;;;;;;;5111384;28;20378;-62
2023/03/16 01:00:15;;;;;;;6.10;2.03;;;;;;;;;;5113309;28;20040;-69
2023/03/16 01:02:44;;;;;;;7.25;2.28;;;14.30;82.00;;;;;;5113229;28;20047;-63
2023/03/16 01:05:11;;;;;;;5.55;2.40;;;14.20;81.80;;;;;;5112790;28;20040;-63
2023/03/16 01:07:38;;;;;;;5.22;2.30;;;14.30;81.90;;;;;;5112452;28;20040;-68
2023/03/16 01:10:04;;;;;;;7.18;2.38;;;14.20;79.00;;;;;;5112740;28;20071;-67
2023/03/16 01:12:30;;;;;;;5.32;2.10;;;14.30;81.90;;;;;;5111271;28;20043;-64
2023/03/16 01:14:56;;;;;;;6.20;2.20;;;14.30;81.80;;;;;;5112551;28;20120;-61
2023/03/16 01:17:21;;;;;;;6.18;2.05;;;14.40;80.40;;;;;;5112953;28;20120;-62
2023/03/16 01:19:47;;;;;;;5.75;1.98;;;14.20;81.80;;;;;;5113018;28;20066;-65
2023/03/16 01:22:13;;;;;;;8.48;2.38;;;14.30;81.80;;;;;;5112231;28;20058;-62
2023/03/16 01:24:39;;;;;;;5.55;2.40;;;14.20;81.80;;;;;;5112968;28;20050;-61
2023/03/16 01:27:06;;;;;;;7.82;2.45;;;13.90;81.60;;;;;;5113608;28;20045;-61
2023/03/16 01:29:32;;;;;;;8.18;2.40;;;14.20;81.80;;;;;;5116217;28;20043;-62
2023/03/16 01:31:58;;;;;;;6.05;2.38;;;14.20;81.70;;;;;;5104279;28;20500;-62
2023/03/16 01:34:24;;;;;;;5.70;2.30;;;14.10;81.70;;;;;;5116831;28;20100;-61
2023/03/16 01:36:50;;;;;;;6.03;2.28;;;13.80;81.50;;;;;;5116991;28;20122;-62
2023/03/16 01:39:16;;;;;;;4.88;2.00;;;;;;;;;;5116832;28;20381;-61
2023/03/16 01:41:42;;;;;;;5.72;2.03;;;;;;;;;;5116583;28;20549;-61
2023/03/16 01:44:15;;;;;;;5.95;2.30;;;;;;;;;;5116900;28;20401;-62
2023/03/16 01:46:43;;;;;;;;;;;14.30;78.80;;;;;;5114754;28;20067;-61
2023/03/16 01:49:22;;;;;;;5.38;2.10;;;14.30;78.70;;;;;;5095962;28;19920;-66
2023/03/16 01:52:01;;;;;;;6.65;2.47;;;14.30;79.00;;;;;;5096253;28;20044;-64
2023/03/16 01:54:43;;;;;;;6.25;2.50;;;14.10;78.70;;;;;;5094658;28;20043;-63
2023/03/16 01:57:14;;;;;;;6.60;2.40;;;14.10;78.80;;;;;;5111890;27;20086;-62
2023/03/16 01:59:54;;;;;;;5.80;2.28;;;14.00;79.20;;;;;;5114686;28;20286;-63
2023/03/16 02:02:22;;;;;;;7.10;2.20;;;14.20;81.70;;;;;;5116501;28;20066;-61
2023/03/16 02:05:03;;;;;;;4.85;2.00;;;14.00;77.10;;;;;;5097424;28;20046;-62
2023/03/16 02:07:31;;;;;;;5.90;2.15;;;13.90;78.00;;;;;;5097842;28;20100;-62
2023/03/16 02:09:57;;;;;;;5.53;2.22;;;14.00;81.50;;;;;;5114830;28;20047;-62
2023/03/16 02:12:24;;;;;;;6.10;2.08;;;;;;;;;;5114956;28;20078;-62
2023/03/16 02:14:50;;;;;;;4.45;2.17;;;14.10;81.60;;;;;;5115830;28;20044;-61
2023/03/16 02:17:17;;;;;;;5.13;2.17;;;14.00;81.50;;;;;;5115563;28;20051;-63
2023/03/16 02:19:51;;;;;;;6.40;2.10;;;14.00;81.50;;;;;;5097498;28;20058;-61
2023/03/16 02:22:17;;;;;;;4.57;1.98;;;14.00;81.50;;;;;;5100672;28;20040;-62
2023/03/16 02:24:43;;;;;;;4.53;2.10;;;14.10;81.50;;;;;;5095694;28;20044;-62
2023/03/16 02:27:10;;;;;;;8.18;2.60;;;;;;;;;;5107539;27;20039;-65
2023/03/16 02:29:55;;;;;;;5.90;2.20;;;;;;;;;;5114578;28;20051;-62
2023/03/16 02:32:21;;;;;;;7.20;2.35;;;14.10;78.90;;;;;;5115509;28;20385;-61
2023/03/16 02:34:46;;;;;;;6.97;2.28;;;14.00;81.50;;;;;;5080538;28;20118;-64
2023/03/16 02:37:12;;;;;;;5.45;2.10;;;13.80;81.30;;;;;;5114896;28;20122;-63
2023/03/16 02:39:38;;;;;;;6.95;2.35;;;14.00;81.40;;;;;;5096546;28;20102;-63
2023/03/16 02:42:04;;;;;;;8.20;2.22;;;14.00;81.50;;;;;;5094930;28;20469;-63
2023/03/16 02:44:34;;;;;;;7.38;2.28;;;14.00;81.50;;;;;;5094046;28;20052;-62
2023/03/16 02:47:03;;;;;;;5.50;2.25;;;13.90;78.20;;;;;;5101358;28;20504;-63
2023/03/16 02:49:39;;;;;;;6.10;2.05;;;14.00;77.60;;;;;;5114349;28;20049;-64
2023/03/16 02:52:05;;;;;;;7.45;2.30;;;14.10;81.50;;;;;;5114023;28;20127;-62
2023/03/16 02:54:31;;;;;;;6.85;2.20;;;13.60;79.40;;;;;;5114666;28;20047;-63
2023/03/16 02:56:56;;;;;;;4.63;2.00;;;14.10;81.50;;;;;;5095061;28;20089;-63
2023/03/16 02:59:22;;;;;;;5.32;2.10;;;13.80;81.30;;;;;;5111397;28;20039;-63
2023/03/16 03:01:48;;;;;;;5.60;2.22;;;;;;;;;;5115257;28;20036;-61
2023/03/16 03:04:14;;;;;;;3.78;1.83;;;14.10;81.40;;;;;;5114753;28;20044;-62
2023/03/16 03:06:40;;;;;;;7.00;2.10;;;13.90;81.40;;;;;;5114856;28;20076;-65
2023/03/16 03:09:06;;;;;;;4.85;1.90;;;;;;;;;;5114591;28;20095;-62
2023/03/16 03:11:32;;;;;;;5.03;2.10;;;;;;;;;;5114424;28;20051;-67
2023/03/16 03:13:58;;;;;;;3.85;1.90;;;14.10;81.40;;;;;;5093124;28;20104;-62
2023/03/16 03:16:24;;;;;;;5.57;2.28;;;14.00;81.40;;;;;;5100371;28;20122;-64
2023/03/16 03:18:51;;;;;;;6.45;2.10;;;14.00;81.40;;;;;;5114971;28;20039;-63
2023/03/16 03:21:17;;;;;;;6.93;2.25;;;14.00;78.10;;;;;;5114421;28;20058;-62
2023/03/16 03:23:45;;;;;;;7.93;2.45;;;13.60;81.20;;;;;;5114964;28;20530;-62
2023/03/16 03:26:11;;;;;;;4.43;2.17;;;13.70;81.20;;;;;;5114698;28;20086;-62
2023/03/16 03:28:38;;;;;;;5.28;2.25;;;;;;;;;;5113172;28;20051;-64
2023/03/16 03:31:03;;;;;;;7.47;2.40;;;14.10;81.40;;;;;;5094297;28;20044;-63
2023/03/16 03:33:29;;;;;;;6.03;2.15;;;14.00;81.40;;;;;;5094258;28;20396;-64
2023/03/16 03:35:56;;;;;;;7.50;2.30;;;14.10;81.40;;;;;;5093758;28;20089;-64
2023/03/16 03:38:22;;;;;;;6.13;2.30;;;;;;;;;;5105851;28;20047;-64
2023/03/16 03:40:50;;;;;;;5.43;2.13;;;14.10;81.30;;;;;;5114221;28;20043;-64
2023/03/16 03:43:16;;;;;;;5.15;2.10;;;13.90;81.20;;;;;;5114216;28;20051;-64
2023/03/16 03:45:42;;;;;;;5.60;2.10;;;13.50;80.90;;;;;;5112274;28;20119;-64
2023/03/16 03:48:07;;;;;;;8.25;2.83;;;13.80;81.10;;;;;;5099092;28;20148;-64
2023/03/16 03:50:33;;;;;;;5.03;2.38;;;;;;;;;;5114283;28;20078;-63
2023/03/16 03:52:59;;;;;;;7.47;2.05;;;13.90;81.20;;;;;;5114310;28;20094;-62
2023/03/16 03:55:25;;;;;;;4.82;2.08;;;13.70;81.10;;;;;;5114070;28;20066;-67
2023/03/16 03:57:51;;;;;;;7.88;2.40;;;13.90;81.10;;;;;;5113919;28;20404;-62
2023/03/16 04:00:20;;;;;;;6.18;2.20;;;13.80;81.10;;;;;;5113717;28;20040;-62
2023/03/16 04:02:47;;;;;;;6.13;2.60;;;;;;;;;;5111913;28;20044;-62
2023/03/16 04:05:12;;;;;;;4.65;2.13;;;13.90;81.20;;;;;;5094005;28;20059;-62
2023/03/16 04:07:38;;;;;;;7.40;2.83;;;;;;;;;;5093595;28;20048;-61
2023/03/16 04:10:05;;;;;;;6.15;2.45;;;13.70;80.00;;;;;;5103876;28;20055;-62
2023/03/16 04:12:31;;;;;;;6.65;2.35;;;13.90;81.20;;;;;;5113531;28;20044;-61
2023/03/16 04:14:57;;;;;;;7.10;2.28;;;13.90;81.10;;;;;;5112811;28;20038;-62
2023/03/16 04:17:23;;;;;;;5.40;2.40;;;13.90;81.10;;;;;;5112402;28;20044;-61
2023/03/16 04:19:48;;;;;;;5.72;2.40;;;13.80;81.10;;;;;;5109226;28;20036;-63
2023/03/16 04:22:15;;;;;;;4.55;1.80;;;;;;;;;;5103505;28;20101;-63
2023/03/16 04:24:42;;;;;;;6.15;2.75;;;14.10;81.30;;;;;;5113178;28;20126;-62
2023/03/16 04:27:10;;;;;;;6.05;2.50;;;13.80;81.10;;;;;;5112354;28;20040;-62
2023/03/16 04:29:36;;;;;;;5.60;2.17;;;13.80;81.20;;;;;;5113293;28;20043;-61
2023/03/16 04:32:01;;;;;;;5.43;2.28;;;13.80;81.10;;;;;;5112027;28;20135;-61
2023/03/16 04:34:27;;;;;;;4.88;2.38;;;13.80;81.10;;;;;;5112793;28;20089;-62
2023/03/16 04:36:53;;;;;;;6.32;2.20;;;13.40;80.80;;;;;;5109462;28;20446;-62
2023/03/16 04:39:22;;;;;;;6.30;2.47;;;13.60;76.60;;;;;;5104326;28;20455;-63
2023/03/16 04:41:48;;;;;;;5.50;2.63;;;13.70;81.00;;;;;;5112067;28;20439;-62
2023/03/16 04:44:13;;;;;;;5.57;2.25;;;13.90;81.10;;;;;;5111666;28;20122;-61
2023/03/16 04:46:39;;;;;;;6.47;2.60;;;13.40;80.90;;;;;;5094612;28;20126;-62
2023/03/16 04:49:08;;;;;;;6.15;2.42;;;;;;;;;;5110960;28;20116;-61
2023/03/16 04:51:35;;;;;;;6.28;3.13;;;;;;;;;;5108537;28;20075;-62
2023/03/16 04:54:01;;;;;;;6.28;2.33;;;;;;;;;;5110623;28;20188;-64
2023/03/16 04:56:27;;;;;;;5.80;2.35;;;13.80;81.10;;;;;;5112266;28;20389;-63
2023/03/16 04:58:55;;;;;;;5.88;2.50;;;13.80;81.00;;;;;;5112225;28;20035;-62
2023/03/16 05:01:21;;;;;;;7.72;2.63;;;;;;;;;;5110703;28;20502;-62
2023/03/16 05:03:48;;;;;;;5.93;2.53;;;13.70;80.90;;;;;;5116144;27;20039;-61
2023/03/16 05:06:14;;;;;;;6.45;2.60;;;;;;;;;;5085346;28;20051;-63
2023/03/16 05:08:41;;;;;;;7.72;3.13;;;13.70;80.90;;;;;;5119038;28;20051;-62
2023/03/16 05:11:07;;;;;;;7.07;2.60;;;;;;;;;;5114132;27;20043;-64
2023/03/16 05:13:33;;;;;;;6.15;2.85;;;13.70;80.70;;;;;;5112316;28;20128;-62
2023/03/16 05:15:59;;;;;;;5.82;2.75;;;13.80;81.00;;;;;;5119934;28;20497;-61
2023/03/16 05:18:25;;;;;;;6.25;2.95;;;13.70;80.90;;;;;;5119050;28;20122;-61
2023/03/16 05:20:55;;;;;;;7.30;2.42;;;13.40;77.90;;;;;;5117480;28;20040;-61
2023/03/16 05:23:21;;;;;;;7.50;3.05;;;;;;;;;;5113482;28;20405;-62
2023/03/16 05:25:47;;;;;;;6.22;2.63;;;13.70;81.00;;;;;;5119611;28;20043;-64
2023/03/16 05:28:13;;;;;;;4.93;2.70;;;13.70;80.90;;;;;;5113382;28;20397;-62
2023/03/16 05:30:41;;;;;;;7.03;2.50;;;13.80;81.00;;;;;;5115593;28;20059;-62
2023/03/16 05:33:07;;;;;;;6.40;2.65;;;13.70;81.00;;;;;;5119272;28;20052;-64
2023/03/16 05:35:33;;;;;;;5.68;2.90;;;;;;;;;;5119828;28;20472;-64
2023/03/16 05:37:59;;;;;;;5.53;2.65;;;13.70;81.00;;;;;;5106046;28;20051;-62
2023/03/16 05:40:25;;;;;;;6.20;2.78;;;13.90;81.00;;;;;;5119358;28;20042;-61
2023/03/16 05:42:54;;;;;;;5.95;2.80;;;13.70;77.90;;;;;;5102624;28;20043;-61
2023/03/16 05:45:20;;;;;;;5.65;2.70;;;13.80;80.90;;;;;;5099454;28;20048;-60
2023/03/16 05:47:46;;;;;;;6.82;3.03;;;;;;;;;;5118309;28;20040;-61
2023/03/16 05:50:12;;;;;;;6.43;2.75;;;14.00;77.50;;;;;;5119341;28;20044;-62
2023/03/16 05:52:38;;;;;;;6.53;2.80;;;;;;;;;;5119266;28;20104;-60
2023/03/16 05:55:05;;;;;;;6.53;2.45;;;13.80;80.90;;;;;;5119121;28;20511;-64
2023/03/16 05:57:32;;;;;;;5.88;2.78;;;14.00;81.00;;;;;;5119326;28;20052;-61
2023/03/16 05:59:58;;;;;;;5.00;2.55;;;13.50;80.80;;;;;;5118818;28;20043;-62
2023/03/16 06:02:25;;;;;;;5.30;2.70;;;;;;;;;;5111315;28;20055;-65
2023/03/16 06:04:51;;;;;;;5.32;2.45;;;13.90;81.00;;;;;;5099114;28;20410;-63
2023/03/16 06:07:17;;;;;;;6.07;2.90;;;13.60;80.80;;;;;;5098698;28;20040;-61
2023/03/16 06:09:42;;;;;;;5.82;2.63;;;13.90;81.00;;;;;;5080314;28;20139;-61
2023/03/16 06:12:08;;;;;;;5.57;2.35;;;13.80;80.90;;;;;;5102023;28;20083;-61
2023/03/16 06:14:35;;;;;;;5.50;2.50;;;;;;;;;;5106814;28;20120;-63
2023/03/16 06:17:00;;;;;;;5.40;2.90;;;14.10;81.10;;;;;;5115856;28;20043;-61
2023/03/16 06:19:27;;;;;;;6.25;2.50;;;;;;;;;;5107471;28;20123;-61
2023/03/16 06:21:52;;;;;;;5.85;2.55;;;13.60;80.80;;;;;;5095660;28;20129;-64
2023/03/16 06:24:18;;;;;;;6.63;2.88;;;;;;;;;;5103709;28;20035;-62
2023/03/16 06:26:44;;;;;;;6.25;2.70;;;13.80;80.90;;;;;;5106537;28;20078;-64
2023/03/16 06:29:10;;;;;;;5.18;2.60;;;;;;;;;;5106160;28;20079;-64
2023/03/16 06:31:36;;;;;;;6.55;2.70;;;14.00;81.00;;;;;;5089735;28;20561;-61
2023/03/16 06:34:02;;;;;;;4.93;2.63;;;13.90;80.90;;;;;;5114266;28;20111;-63
2023/03/16 06:36:29;;;;;;;7.75;3.20;;;14.00;80.90;;;;;;5107344;28;20101;-61
2023/03/16 06:38:55;;;;;;;5.95;2.63;;;;;;;;;;5104971;28;20047;-63
2023/03/16 06:41:21;;;;;;;5.15;2.60;;;13.90;80.90;;;;;;5115038;28;20050;-65
2023/03/16 06:43:47;;;;;;;6.35;2.80;;;;;;;;;;5115631;28;20404;-61
2023/03/16 06:46:13;;;;;;;6.05;2.67;;;;;;;;;;5115433;28;20051;-61
2023/03/16 06:48:39;;;;;;;4.57;2.42;;;13.90;80.80;;;;;;5115301;28;20058;-60
2023/03/16 06:51:06;;;;;;;5.38;2.60;;;14.00;80.80;;;;;;5115006;28;20032;-61
2023/03/16 06:53:32;;;;;;;7.47;2.72;;;13.80;80.70;;;;;;5106755;28;20405;-62
2023/03/16 06:55:58;;;;;;;6.10;2.63;;;;;;;;;;5094984;28;20036;-61
2023/03/16 06:58:24;;;;;;;5.43;2.63;;;14.10;80.90;;;;;;5094527;28;20512;-62
2023/03/16 07:00:52;;;;;;;6.25;2.60;;;14.00;80.80;;;;;;5099847;28;20062;-63
2023/03/16 07:03:18;;;;;;;5.03;2.50;;;13.90;80.70;;;;;;5099138;28;20089;-61
2023/03/16 07:05:44;;;;;;;5.90;2.70;;;13.50;80.50;;;;;;5114953;28;20485;-65
2023/03/16 07:08:11;;;;;;;6.07;2.58;;;13.80;80.70;;;;;;5114875;28;20043;-62
2023/03/16 07:10:37;;;;;;;8.45;2.88;;;;;;;;;;5105514;28;20110;-63
2023/03/16 07:13:03;;;;;;;4.70;2.45;;;13.70;80.50;;;;;;5114351;28;20073;-60
2023/03/16 07:15:29;;;;;;;7.22;2.67;;;13.80;80.60;;;;;;5115023;28;20061;-62
2023/03/16 07:17:55;;;;;;;6.40;2.80;;;13.90;80.70;;;;;;5114938;28;20035;-62
2023/03/16 07:20:21;;;;;;;5.90;2.67;;;;;;;;;;5114740;28;20112;-61
2023/03/16 07:22:47;;;;;;;5.38;2.80;;;14.00;80.60;;;;;;5113810;28;20047;-65
2023/03/16 07:25:13;;;;;;;6.32;2.80;;;;;;;;;;5114526;28;20047;-63
2023/03/16 07:27:40;;;;;;;5.63;2.55;;;13.30;77.80;;;;;;5113185;28;20508;-61
2023/03/16 07:30:07;;;;;;;5.85;2.72;;;13.70;80.60;;;;;;5114456;28;20051;-61
2023/03/16 07:32:33;;;;;;;6.95;2.83;;;;;;;;;;5114276;28;20429;-63
2023/03/16 07:34:59;;;;;;;6.35;3.15;;;13.60;80.50;;;;;;5113967;28;20039;-65
2023/03/16 07:37:25;;;;;;;6.95;2.67;;;13.50;80.50;;;;;;5114692;28;20085;-67
2023/03/16 07:39:51;;;;;;;6.03;2.85;;;13.10;80.40;;;;;;5114272;28;20054;-69
2023/03/16 07:42:17;;;;;;;5.57;2.88;;;13.40;80.70;;;;;;5113780;28;20035;-64
2023/03/16 07:44:43;;;;;;;6.10;3.13;;;;;;;;;;5103959;28;20051;-64
2023/03/16 07:47:11;;;;;;;5.95;2.75;;;;;;;;;;5094045;28;20123;-66
2023/03/16 07:49:37;;;;;;;6.40;2.97;;;13.50;77.90;;;;;;5103459;28;20040;-65
2023/03/16 07:52:03;;;;;;;7.35;2.70;;;;;;;;;;5112424;28;20042;-67
2023/03/16 07:54:29;;;;;;;6.53;3.17;;;13.30;79.60;;;;;;5077484;28;20048;-63
2023/03/16 07:56:55;;;;;;;9.40;3.10;;;;;;;;;;5109584;28;20385;-64
2023/03/16 07:59:21;;;;;;;15.88;4.00;;;13.20;80.90;;;;;;5109566;28;20046;-62
2023/03/16 08:01:47;;;;;;;9.50;3.00;;;13.10;81.30;;;;;;5102555;28;20040;-72
2023/03/16 08:04:13;;;;;;;7.22;2.67;;;13.50;80.20;;;;;;5103695;27;20429;-75
2023/03/16 08:06:41;;;;;;;9.23;3.00;;;;;;;;;;5114070;28;20101;-73
2023/03/16 08:09:07;;;;;;;8.82;3.20;;;13.10;81.40;;;;;;5112702;28;20055;-76
2023/03/16 08:11:33;;;;;;;10.65;4.32;;;13.20;81.30;;;;;;5112846;28;20556;-74
2023/03/16 08:13:58;;;;;;;5.35;2.50;;;13.30;81.40;;;;;;5113971;28;20123;-73
2023/03/16 08:16:25;;;;;;;5.50;3.10;;;;;;;;;;5113449;28;20050;-70
2023/03/16 08:18:51;;;;;;;8.40;3.05;;;;;;;;;;5112409;28;20464;-61
2023/03/16 08:21:17;;;;;;;6.65;3.08;;;13.50;81.20;;;;;;5111637;28;20085;-76
2023/03/16 08:23:47;;;;;;;5.85;2.67;;;13.40;81.10;;;;;;5112148;28;20031;-74
2023/03/16 08:26:20;;;;;;;5.22;2.80;;;13.60;78.00;;;;;;5111357;28;20079;-73
2023/03/16 08:28:46;;;;;;;6.45;2.88;;;13.40;81.10;;;;;;5112390;28;20048;-76
2023/03/16 08:31:15;;;;;;;7.65;2.83;;;13.50;81.20;;;;;;5094860;28;20039;-74
2023/03/16 08:33:41;;;;;;;5.72;3.10;;;13.60;78.20;;;;;;5113057;28;20048;-64
2023/03/16 08:36:08;;;;;;;5.45;2.83;;;13.50;81.20;;;;;;5098628;28;20055;-61
2023/03/16 08:38:34;;;;;;;6.72;2.60;;;13.50;81.20;;;;;;5092669;28;20052;-62
2023/03/16 08:41:00;;;;;;;7.22;2.92;;;;;;;;;;5094045;28;20457;-62
2023/03/16 08:43:26;;;;;;;6.43;3.28;;;13.50;80.70;;;;;;5113373;28;20397;-63
2023/03/16 08:45:52;;;;;;;5.72;3.10;;;13.30;79.60;;;;;;5113939;28;20262;-62
2023/03/16 08:48:19;;;;;;;7.18;3.10;;;13.20;81.80;;;;;;5113572;28;20066;-62
2023/03/16 08:50:45;;;;;;;5.93;2.95;;;;;;;;;;5113754;28;20047;-63
2023/03/16 08:53:12;;;;;;;7.28;3.28;;;;;;;;;;5098414;28;20746;-61
2023/03/16 08:55:40;;;;;;;6.30;2.88;;;13.20;81.90;;;;;;5112102;28;20433;-61
2023/03/16 08:58:06;;;;;;;6.72;2.80;;;;;;;;;;5096524;28;20047;-62
2023/03/16 09:00:32;;;;;;;7.90;2.88;;;13.30;81.90;;;;;;5113041;28;20052;-61
2023/03/16 09:02:59;;;;;;;7.28;3.20;;;13.30;82.00;;;;;;5112089;28;20054;-63
2023/03/16 09:05:25;;;;;;;10.55;3.10;;;;;;;;;;5113026;28;20455;-62
2023/03/16 09:07:52;;;;;;;6.45;3.10;;;13.60;82.30;;;;;;5112939;28;20127;-63
2023/03/16 09:10:19;;;;;;;5.63;2.80;;;13.20;82.00;;;;;;5101114;28;20592;-63
2023/03/16 09:12:45;;;;;;;7.88;3.38;;;13.60;82.40;;;;;;5112021;28;20079;-63
2023/03/16 09:15:11;;;;;;;8.48;3.40;;;13.30;82.30;;;;;;5113164;28;20074;-63
2023/03/16 09:17:37;;;;;;;7.63;3.10;;;;;;;;;;5113117;28;20465;-62
2023/03/16 09:20:08;;;;;;;7.57;2.75;;;;;;;;;;5112130;28;20079;-63
2023/03/16 09:22:34;;;;;;;7.82;3.42;;;13.30;82.40;;;;;;5111982;28;20473;-63
2023/03/16 09:25:00;;;;;;;6.20;3.13;;;12.90;82.20;;;;;;5113120;28;20104;-62
2023/03/16 09:27:26;;;;;;;8.05;2.70;;;13.10;82.30;;;;;;5096255;28;20044;-61
2023/03/16 09:29:54;;;;;;;6.57;2.88;;;13.40;82.50;;;;;;5092274;28;20044;-61
2023/03/16 09:32:20;;;;;;;6.57;2.92;;;13.60;82.60;;;;;;5093656;28;20559;-62
2023/03/16 09:34:46;;;;;;;8.20;3.28;;;13.50;82.60;;;;;;5103081;28;20039;-63
2023/03/16 09:37:12;;;;;;;7.07;2.97;;;13.40;82.60;;;;;;5113027;28;20059;-62
2023/03/16 09:39:38;;;;;;;7.00;3.20;;;;;;;;;;5113211;28;20461;-62
2023/03/16 09:42:35;;;;;;;6.50;3.05;;;13.40;78.50;;;;;;5112879;28;20065;-63
2023/03/16 09:45:12;;;;;;;6.90;2.92;;;13.30;78.50;;;;;;5103507;28;20449;-63
2023/03/16 09:47:39;;;;;;;6.97;2.97;;;;;;;;;;5112885;28;20047;-63
2023/03/16 09:50:08;;;;;;;6.90;3.15;;;13.30;82.70;;;;;;5113858;28;20094;-63
2023/03/16 09:53:05;;;;;;;5.45;2.95;;;13.40;80.30;;;;;;5116136;28;20051;-64
2023/03/16 09:55:32;;;;;;;6.20;3.00;;;13.40;83.00;;;;;;5116413;28;20058;-64
2023/03/16 09:57:58;;;;;;;6.38;3.75;;;;;;;;;;5116095;28;20492;-63
2023/03/16 10:00:26;;;;;;;5.97;2.97;;;13.40;83.00;;;;;;5108415;28;20051;-63
2023/03/16 10:03:02;;;;;;;6.80;3.10;;;13.40;80.50;;;;;;5096230;28;20055;-68
2023/03/16 10:05:28;;;;;;;6.57;3.30;;;13.30;83.20;;;;;;5112141;28;20040;-61
2023/03/16 10:08:00;;;;;;;6.25;3.13;;;13.20;79.00;;;;;;5116023;28;20092;-68
2023/03/16 10:10:41;;;;;;;6.72;2.85;;;13.50;79.40;;;;;;5114627;28;20052;-68
2023/03/16 10:13:28;;;;;;;5.07;2.80;;;;;;;;;;5115055;28;20044;-67
2023/03/16 10:15:54;;;;;;;6.38;3.22;;;13.30;83.40;;;;;;5096241;28;20047;-63
2023/03/16 10:18:31;;;;;;;7.25;3.33;;;13.50;83.60;;;;;;5097043;28;20044;-62
2023/03/16 10:20:58;;;;;;;6.50;3.63;;;13.50;83.60;;;;;;5082241;28;20039;-61
2023/03/16 10:23:25;;;;;;;6.57;3.30;;;;;;;;;;5080592;28;20048;-64
2023/03/16 10:25:54;;;;;;;6.40;3.35;;;;;;;;;;5113992;28;20031;-61
2023/03/16 10:28:20;;;;;;;6.00;3.42;;;;;;;;;;5113482;28;20152;-68
2023/03/16 10:30:47;;;;;;;7.53;3.60;;;13.30;84.00;;;;;;5114587;28;20039;-64
2023/03/16 10:33:32;;;;;;;6.35;3.45;;;13.30;79.90;;;;;;5096199;28;20157;-64
2023/03/16 10:36:10;;;;;;;6.85;3.70;;;13.30;84.30;;;;;;5105091;28;20397;-65
2023/03/16 10:38:40;;;;;;;7.20;3.50;;;13.20;80.10;;;;;;5102307;28;20043;-64
2023/03/16 10:41:29;;;;;;;6.10;3.45;;;13.30;81.80;;;;;;5105972;28;20055;-64
2023/03/16 10:44:12;;;;;;;6.03;3.72;;;13.30;80.40;;;;;;5102762;28;20101;-64
2023/03/16 10:46:47;;;;;;;7.80;3.83;;;;;;;;;;5107490;28;20036;-63
2023/03/16 10:49:19;;;;;;;6.57;3.40;;;13.20;80.50;;;;;;5102913;28;20036;-65
2023/03/16 10:51:45;;;;;;;6.93;3.83;;;;;;;;;;5105752;28;20077;-65
2023/03/16 10:54:31;;;;;;;8.02;4.03;;;;;;;;;;5078550;28;20050;-65
2023/03/16 10:56:57;;;;;;;5.72;3.72;;;13.10;85.20;;;;;;5095994;28;20051;-64
2023/03/16 10:59:33;;;;;;;6.90;3.70;;;13.00;82.00;;;;;;5097008;28;20396;-62
2023/03/16 11:02:10;;;;;;;6.40;3.45;;;13.10;83.60;;;;;;5112868;28;20089;-65
2023/03/16 11:04:36;;;;;;;8.25;3.88;;;13.10;85.30;;;;;;5112041;28;20195;-62
2023/03/16 11:07:02;;;;;;;7.40;3.53;;;13.00;85.30;;;;;;5115334;28;20047;-63
2023/03/16 11:09:32;;;;;;;8.60;3.75;;;;;;;;;;5093085;28;20452;-63
2023/03/16 11:11:58;;;;;;;8.80;4.07;;;13.00;82.70;;;;;;5094169;28;20051;-65
2023/03/16 11:14:27;;;;;;;9.43;3.92;;;12.90;82.60;;;;;;5091723;28;20047;-63
2023/03/16 11:16:56;;;;;;;6.90;3.85;;;;;;;;;;5094305;28;20052;-63
2023/03/16 11:19:28;;;;;;;9.10;3.72;;;13.10;83.10;;;;;;5093129;28;20094;-66
2023/03/16 11:22:20;;;;;;;9.77;4.22;;;12.90;82.20;;;;;;5093537;28;20048;-66
2023/03/16 11:25:01;;;;;;;7.40;3.80;;;13.00;81.80;;;;;;5083083;28;20036;-63
2023/03/16 11:27:33;;;;;;;7.32;3.90;;;;;;;;;;5093042;28;20051;-65
2023/03/16 11:30:23;;;;;;;6.10;3.77;;;13.10;82.40;;;;;;5094259;28;20375;-65
2023/03/16 11:32:50;;;;;;;6.25;3.53;;;12.90;86.10;;;;;;5091105;28;20040;-63
2023/03/16 11:35:16;;;;;;;8.40;3.40;;;;;;;;;;5092959;28;20071;-66
2023/03/16 11:37:48;;;;;;;8.55;4.00;;;13.00;83.50;;;;;;5073992;28;20433;-65
2023/03/16 11:40:38;;;;;;;6.28;3.70;;;12.90;82.10;;;;;;5072715;28;20080;-62
2023/03/16 11:43:15;;;;;;;7.45;3.75;;;12.90;82.00;;;;;;5086791;28;20044;-66
2023/03/16 11:45:51;;;;;;;6.65;3.50;;;13.00;83.50;;;;;;5091762;28;20501;-66
2023/03/16 11:48:35;;;;;;;6.40;3.50;;;12.80;82.50;;;;;;5077119;28;20051;-67
2023/03/16 11:51:30;;;;;;;11.10;3.60;;;13.10;82.70;;;;;;5093719;28;20044;-66
2023/03/16 11:54:02;;;;;;;7.53;3.75;;;12.90;82.10;;;;;;5093985;28;20437;-66
2023/03/16 11:56:48;;;;;;;6.90;3.67;;;;;;;;;;5091416;28;20055;-66
2023/03/16 11:59:23;;;;;;;7.40;3.25;;;13.10;86.60;;;;;;5086279;28;20128;-67
2023/03/16 12:02:13;;;;;;;7.72;3.50;;;13.00;82.40;;;;;;5073543;28;20401;-68
2023/03/16 12:04:58;;;;;;;6.32;3.25;;;;;;;;;;5083591;28;20047;-67
2023/03/16 12:07:32;;;;;;;6.75;3.53;;;13.10;86.60;;;;;;5090120;28;20047;-65
2023/03/16 12:10:05;;;;;;;6.20;3.63;;;;;;;;;;5102589;28;20067;-66
2023/03/16 12:12:41;;;;;;;;;;;13.30;84.40;;;;;;5094044;28;20381;-67
2023/03/16 12:15:34;;;;;;;6.15;3.65;;;13.20;84.20;;;;;;5094834;28;19926;-64
2023/03/16 12:18:20;;;;;;;6.13;3.42;;;13.10;82.60;;;;;;5109773;27;20119;-67
2023/03/16 12:20:47;;;;;;;6.15;3.17;;;;;;;;;;5113822;28;20052;-67
2023/03/16 12:23:22;;;;;;;5.47;3.08;;;13.50;85.30;;;;;;5113764;28;20043;-64
2023/03/16 12:25:49;;;;;;;5.63;3.10;;;;;;;;;;5110138;28;20045;-62
2023/03/16 12:28:23;;;;;;;7.38;3.00;;;13.30;84.10;;;;;;5095857;28;20039;-65
2023/03/16 12:30:52;;;;;;;6.00;2.72;;;13.20;86.90;;;;;;5113383;28;20075;-67
2023/03/16 12:33:33;;;;;;;7.28;3.30;;;13.10;83.80;;;;;;5106459;28;20044;-66
2023/03/16 12:36:17;;;;;;;7.03;3.13;;;;;;;;;;5073663;28;20073;-62
2023/03/16 12:39:34;;;;;;;8.45;3.28;;;13.20;84.40;;;;;;5112097;28;20032;-63
2023/03/16 12:42:19;;;;;;;8.88;2.92;;;;;;;;;;5049279;28;20048;-63
2023/03/16 12:44:56;;;;;;;7.72;2.92;;;13.00;86.90;;;;;;5033984;28;20132;-62
2023/03/16 12:47:32;;;;;;;11.88;3.35;;;13.00;84.10;;;;;;5035159;28;20513;-64
2023/03/16 12:50:15;;;;;;;5.88;2.90;;;13.40;84.80;;;;;;5052299;28;20060;-62
2023/03/16 12:52:48;;;;;;;5.93;3.07;;;13.30;84.40;;;;;;5034268;28;20065;-64
2023/03/16 12:55:15;;;;;;;5.20;2.75;;;13.60;84.20;;;;;;5033692;28;20276;-64
2023/03/16 12:57:41;;;;;;;5.85;2.97;;;13.30;83.20;;;;;;5049988;28;20458;-64
2023/03/16 13:00:08;;;;;;;5.43;2.72;;;13.70;87.10;;;;;;5053206;28;20036;-64
2023/03/16 13:02:36;;;;;;;6.40;2.80;;;13.60;84.70;;;;;;5053730;28;20048;-61
2023/03/16 13:05:08;;;;;;;7.03;2.85;;;13.60;84.10;;;;;;5037022;28;20056;-64
2023/03/16 13:07:34;;;;;;;7.93;3.25;;;;;;;;;;5027813;28;20151;-61
2023/03/16 13:10:08;;;;;;;5.53;3.08;;;13.80;84.20;;;;;;5049616;28;20056;-61
2023/03/16 13:12:40;;;;;;;5.20;2.72;;;13.70;84.30;;;;;;5034082;28;20070;-62
2023/03/16 13:15:24;;;;;;;7.28;2.70;;;13.80;82.80;;;;;;5049878;28;20059;-61
2023/03/16 13:18:22;;;;;;;7.15;2.97;;;13.80;84.30;;;;;;5066132;28;20120;-65
2023/03/16 13:20:59;;;;;;;6.40;2.95;;;13.80;82.80;;;;;;5074149;28;20134;-61
2023/03/16 13:23:53;;;;;;;6.15;2.80;;;14.00;83.10;;;;;;5093588;28;20048;-61